sensor_id;sensor_type;location;lat;lon;timestamp;P1;durP1;ratioP1;P2;durP2;ratioP2
39776;SDS011;25453;48.162;14.510;2022-10-16T00:01:34;2.33;;;1.13;;
39776;SDS011;25453;48.162;14.510;2022-10-16T00:04:08;2.17;;;1.33;;
39776;SDS011;25453;48.162;14.510;2022-10-16T00:06:46;1.30;;;0.85;;
39776;SDS011;25453;48.162;14.510;2022-10-16T00:09:14;2.22;;;1.25;;
39776;SDS011;25453;48.162;14.510;2022-10-16T00:11:47;1.73;;;1.08;;
39776;SDS011;25453;48.162;14.510;2022-10-16T00:14:16;1.80;;;1.10;;
39776;SDS011;25453;48.162;14.510;2022-10-16T00:16:50;1.38;;;0.90;;
39776;SDS011;25453;48.162;14.510;2022-10-16T00:19:24;2.72;;;1.20;;
39776;SDS011;25453;48.162;14.510;2022-10-16T00:21:58;2.70;;;1.40;;
39776;SDS011;25453;48.162;14.510;2022-10-16T00:24:32;3.30;;;2.03;;
39776;SDS011;25453;48.162;14.510;2022-10-16T00:27:08;2.33;;;1.20;;
39776;SDS011;25453;48.162;14.510;2022-10-16T00:29:42;1.52;;;0.90;;
39776;SDS011;25453;48.162;14.510;2022-10-16T00:32:16;2.17;;;1.00;;
39776;SDS011;25453;48.162;14.510;2022-10-16T00:34:53;2.85;;;0.80;;
39776;SDS011;25453;48.162;14.510;2022-10-16T00:37:30;1.83;;;0.90;;
39776;SDS011;25453;48.162;14.510;2022-10-16T00:39:57;2.42;;;0.95;;
39776;SDS011;25453;48.162;14.510;2022-10-16T00:42:33;1.55;;;1.00;;
39776;SDS011;25453;48.162;14.510;2022-10-16T00:45:00;1.45;;;1.00;;
39776;SDS011;25453;48.162;14.510;2022-10-16T00:47:37;1.48;;;0.90;;
39776;SDS011;25453;48.162;14.510;2022-10-16T00:52:58;1.00;;;0.70;;
39776;SDS011;25453;48.162;14.510;2022-10-16T00:55:34;1.15;;;0.88;;
39776;SDS011;25453;48.162;14.510;2022-10-16T00:58:07;2.00;;;1.10;;
39776;SDS011;25453;48.162;14.510;2022-10-16T01:00:42;1.35;;;0.70;;
39776;SDS011;25453;48.162;14.510;2022-10-16T01:06:20;1.70;;;0.90;;
39776;SDS011;25453;48.162;14.510;2022-10-16T01:14:36;1.65;;;0.85;;
39776;SDS011;25453;48.162;14.510;2022-10-16T01:23:10;1.20;;;0.88;;
39776;SDS011;25453;48.162;14.510;2022-10-16T01:26:15;1.92;;;1.02;;
39776;SDS011;25453;48.162;14.510;2022-10-16T01:32:04;2.50;;;1.30;;
39776;SDS011;25453;48.162;14.510;2022-10-16T01:35:38;2.15;;;1.15;;
39776;SDS011;25453;48.162;14.510;2022-10-16T01:37:51;2.85;;;1.00;;
39776;SDS011;25453;48.162;14.510;2022-10-16T01:40:41;2.25;;;1.00;;
39776;SDS011;25453;48.162;14.510;2022-10-16T01:43:24;1.38;;;0.95;;
39776;SDS011;25453;48.162;14.510;2022-10-16T01:46:05;2.10;;;0.85;;
39776;SDS011;25453;48.162;14.510;2022-10-16T01:48:41;2.30;;;1.08;;
39776;SDS011;25453;48.162;14.510;2022-10-16T01:51:09;1.92;;;1.00;;
39776;SDS011;25453;48.162;14.510;2022-10-16T01:53:48;2.70;;;1.58;;
39776;SDS011;25453;48.162;14.510;2022-10-16T01:56:25;1.65;;;0.65;;
39776;SDS011;25453;48.162;14.510;2022-10-16T01:59:02;1.45;;;0.77;;
39776;SDS011;25453;48.162;14.510;2022-10-16T02:01:50;1.35;;;0.80;;
39776;SDS011;25453;48.162;14.510;2022-10-16T02:04:30;1.92;;;0.80;;
39776;SDS011;25453;48.162;14.510;2022-10-16T02:07:12;1.13;;;0.68;;
39776;SDS011;25453;48.162;14.510;2022-10-16T02:09:40;1.52;;;0.70;;
39776;SDS011;25453;48.162;14.510;2022-10-16T02:12:25;1.05;;;0.75;;
39776;SDS011;25453;48.162;14.510;2022-10-16T02:15:02;1.08;;;0.65;;
39776;SDS011;25453;48.162;14.510;2022-10-16T02:17:36;0.93;;;0.50;;
39776;SDS011;25453;48.162;14.510;2022-10-16T02:20:04;1.67;;;0.80;;
39776;SDS011;25453;48.162;14.510;2022-10-16T02:22:39;1.02;;;0.60;;
39776;SDS011;25453;48.162;14.510;2022-10-16T02:25:22;1.88;;;0.88;;
39776;SDS011;25453;48.162;14.510;2022-10-16T02:28:17;3.10;;;0.90;;
39776;SDS011;25453;48.162;14.510;2022-10-16T02:31:03;2.10;;;0.80;;
39776;SDS011;25453;48.162;14.510;2022-10-16T02:33:41;1.55;;;0.73;;
39776;SDS011;25453;48.162;14.510;2022-10-16T02:36:10;1.95;;;0.82;;
39776;SDS011;25453;48.162;14.510;2022-10-16T02:38:38;1.95;;;0.90;;
39776;SDS011;25453;48.162;14.510;2022-10-16T02:43:47;1.38;;;0.80;;
39776;SDS011;25453;48.162;14.510;2022-10-16T02:46:16;2.60;;;1.13;;
39776;SDS011;25453;48.162;14.510;2022-10-16T02:48:50;1.42;;;0.75;;
39776;SDS011;25453;48.162;14.510;2022-10-16T02:51:17;1.30;;;0.88;;
39776;SDS011;25453;48.162;14.510;2022-10-16T02:53:51;2.40;;;1.08;;
39776;SDS011;25453;48.162;14.510;2022-10-16T02:56:19;1.60;;;1.02;;
39776;SDS011;25453;48.162;14.510;2022-10-16T02:58:46;1.25;;;0.70;;
39776;SDS011;25453;48.162;14.510;2022-10-16T03:01:20;2.35;;;1.25;;
39776;SDS011;25453;48.162;14.510;2022-10-16T03:03:54;1.90;;;1.00;;
39776;SDS011;25453;48.162;14.510;2022-10-16T03:06:28;1.38;;;0.90;;
39776;SDS011;25453;48.162;14.510;2022-10-16T03:09:02;2.87;;;0.80;;
39776;SDS011;25453;48.162;14.510;2022-10-16T03:11:31;1.17;;;0.80;;
39776;SDS011;25453;48.162;14.510;2022-10-16T03:14:04;1.25;;;0.75;;
39776;SDS011;25453;48.162;14.510;2022-10-16T03:16:31;1.13;;;0.80;;
39776;SDS011;25453;48.162;14.510;2022-10-16T03:19:05;1.30;;;0.70;;
39776;SDS011;25453;48.162;14.510;2022-10-16T03:21:33;1.13;;;0.70;;
39776;SDS011;25453;48.162;14.510;2022-10-16T03:24:06;1.65;;;0.77;;
39776;SDS011;25453;48.162;14.510;2022-10-16T03:26:33;1.50;;;0.70;;
39776;SDS011;25453;48.162;14.510;2022-10-16T03:29:14;0.63;;;0.40;;
39776;SDS011;25453;48.162;14.510;2022-10-16T03:31:47;1.67;;;0.77;;
39776;SDS011;25453;48.162;14.510;2022-10-16T03:34:28;1.10;;;0.60;;
39776;SDS011;25453;48.162;14.510;2022-10-16T03:37:02;0.77;;;0.68;;
39776;SDS011;25453;48.162;14.510;2022-10-16T03:39:36;1.00;;;0.73;;
39776;SDS011;25453;48.162;14.510;2022-10-16T03:42:10;0.80;;;0.60;;
39776;SDS011;25453;48.162;14.510;2022-10-16T03:44:45;0.85;;;0.68;;
39776;SDS011;25453;48.162;14.510;2022-10-16T03:47:19;1.70;;;0.80;;
39776;SDS011;25453;48.162;14.510;2022-10-16T03:49:49;1.70;;;0.68;;
39776;SDS011;25453;48.162;14.510;2022-10-16T03:52:16;1.02;;;0.70;;
39776;SDS011;25453;48.162;14.510;2022-10-16T03:54:50;1.30;;;0.67;;
39776;SDS011;25453;48.162;14.510;2022-10-16T03:57:24;1.27;;;0.70;;
39776;SDS011;25453;48.162;14.510;2022-10-16T03:59:52;1.20;;;0.70;;
39776;SDS011;25453;48.162;14.510;2022-10-16T04:02:21;1.10;;;0.68;;
39776;SDS011;25453;48.162;14.510;2022-10-16T04:04:54;0.50;;;0.43;;
39776;SDS011;25453;48.162;14.510;2022-10-16T04:07:28;0.80;;;0.50;;
39776;SDS011;25453;48.162;14.510;2022-10-16T04:09:55;1.02;;;0.52;;
39776;SDS011;25453;48.162;14.510;2022-10-16T04:12:31;0.85;;;0.60;;
39776;SDS011;25453;48.162;14.510;2022-10-16T04:15:00;1.13;;;0.60;;
39776;SDS011;25453;48.162;14.510;2022-10-16T04:17:33;1.23;;;0.80;;
39776;SDS011;25453;48.162;14.510;2022-10-16T04:20:00;1.25;;;0.85;;
39776;SDS011;25453;48.162;14.510;2022-10-16T04:22:34;2.53;;;1.27;;
39776;SDS011;25453;48.162;14.510;2022-10-16T04:25:03;2.35;;;1.30;;
39776;SDS011;25453;48.162;14.510;2022-10-16T04:27:38;1.98;;;1.20;;
39776;SDS011;25453;48.162;14.510;2022-10-16T04:30:18;2.42;;;1.40;;
39776;SDS011;25453;48.162;14.510;2022-10-16T04:32:52;2.67;;;1.70;;
39776;SDS011;25453;48.162;14.510;2022-10-16T04:35:21;3.03;;;1.58;;
39776;SDS011;25453;48.162;14.510;2022-10-16T04:37:57;2.80;;;1.77;;
39776;SDS011;25453;48.162;14.510;2022-10-16T04:40:24;2.40;;;1.33;;
39776;SDS011;25453;48.162;14.510;2022-10-16T04:42:58;3.03;;;1.70;;
39776;SDS011;25453;48.162;14.510;2022-10-16T04:45:32;2.10;;;1.30;;
39776;SDS011;25453;48.162;14.510;2022-10-16T04:48:07;2.10;;;1.30;;
39776;SDS011;25453;48.162;14.510;2022-10-16T04:50:34;1.48;;;1.05;;
39776;SDS011;25453;48.162;14.510;2022-10-16T04:53:07;1.70;;;0.85;;
39776;SDS011;25453;48.162;14.510;2022-10-16T04:55:41;1.50;;;1.02;;
39776;SDS011;25453;48.162;14.510;2022-10-16T04:58:16;1.65;;;1.13;;
39776;SDS011;25453;48.162;14.510;2022-10-16T05:00:45;1.80;;;0.90;;
39776;SDS011;25453;48.162;14.510;2022-10-16T05:03:19;1.88;;;0.90;;
39776;SDS011;25453;48.162;14.510;2022-10-16T05:05:47;1.33;;;0.90;;
39776;SDS011;25453;48.162;14.510;2022-10-16T05:08:15;1.10;;;0.63;;
39776;SDS011;25453;48.162;14.510;2022-10-16T05:10:49;1.48;;;0.90;;
39776;SDS011;25453;48.162;14.510;2022-10-16T05:13:17;1.85;;;0.80;;
39776;SDS011;25453;48.162;14.510;2022-10-16T05:15:50;1.20;;;0.80;;
39776;SDS011;25453;48.162;14.510;2022-10-16T05:18:18;1.73;;;0.85;;
39776;SDS011;25453;48.162;14.510;2022-10-16T05:20:46;1.45;;;0.77;;
39776;SDS011;25453;48.162;14.510;2022-10-16T05:23:19;1.25;;;0.80;;
39776;SDS011;25453;48.162;14.510;2022-10-16T05:25:54;1.05;;;0.60;;
39776;SDS011;25453;48.162;14.510;2022-10-16T05:28:30;1.17;;;0.60;;
39776;SDS011;25453;48.162;14.510;2022-10-16T05:31:08;0.50;;;0.40;;
39776;SDS011;25453;48.162;14.510;2022-10-16T05:33:43;0.95;;;0.50;;
39776;SDS011;25453;48.162;14.510;2022-10-16T05:36:17;0.90;;;0.70;;
39776;SDS011;25453;48.162;14.510;2022-10-16T05:38:50;0.75;;;0.50;;
39776;SDS011;25453;48.162;14.510;2022-10-16T05:41:24;1.38;;;0.70;;
39776;SDS011;25453;48.162;14.510;2022-10-16T05:43:52;1.50;;;1.17;;
39776;SDS011;25453;48.162;14.510;2022-10-16T05:46:20;0.88;;;0.57;;
39776;SDS011;25453;48.162;14.510;2022-10-16T05:48:54;1.20;;;0.73;;
39776;SDS011;25453;48.162;14.510;2022-10-16T05:51:28;1.05;;;0.68;;
39776;SDS011;25453;48.162;14.510;2022-10-16T05:53:57;1.00;;;0.65;;
39776;SDS011;25453;48.162;14.510;2022-10-16T05:56:31;1.08;;;0.70;;
39776;SDS011;25453;48.162;14.510;2022-10-16T05:58:58;0.70;;;0.60;;
39776;SDS011;25453;48.162;14.510;2022-10-16T06:01:26;0.95;;;0.65;;
39776;SDS011;25453;48.162;14.510;2022-10-16T06:04:00;1.15;;;0.65;;
39776;SDS011;25453;48.162;14.510;2022-10-16T06:06:28;1.10;;;0.60;;
39776;SDS011;25453;48.162;14.510;2022-10-16T06:09:02;0.70;;;0.70;;
39776;SDS011;25453;48.162;14.510;2022-10-16T06:11:36;1.10;;;0.73;;
39776;SDS011;25453;48.162;14.510;2022-10-16T06:14:03;1.05;;;0.73;;
39776;SDS011;25453;48.162;14.510;2022-10-16T06:16:39;2.65;;;0.80;;
39776;SDS011;25453;48.162;14.510;2022-10-16T06:19:13;1.17;;;0.50;;
39776;SDS011;25453;48.162;14.510;2022-10-16T06:21:42;1.83;;;0.93;;
39776;SDS011;25453;48.162;14.510;2022-10-16T06:24:16;1.48;;;0.63;;
39776;SDS011;25453;48.162;14.510;2022-10-16T06:26:50;1.48;;;0.88;;
39776;SDS011;25453;48.162;14.510;2022-10-16T06:29:31;1.17;;;0.70;;
39776;SDS011;25453;48.162;14.510;2022-10-16T06:32:04;1.80;;;0.98;;
39776;SDS011;25453;48.162;14.510;2022-10-16T06:34:38;1.50;;;0.90;;
39776;SDS011;25453;48.162;14.510;2022-10-16T06:37:15;1.13;;;0.70;;
39776;SDS011;25453;48.162;14.510;2022-10-16T06:39:42;1.67;;;0.90;;
39776;SDS011;25453;48.162;14.510;2022-10-16T06:42:17;1.63;;;0.80;;
39776;SDS011;25453;48.162;14.510;2022-10-16T06:44:45;1.80;;;0.90;;
39776;SDS011;25453;48.162;14.510;2022-10-16T06:47:19;1.95;;;1.08;;
39776;SDS011;25453;48.162;14.510;2022-10-16T06:49:46;1.52;;;0.85;;
39776;SDS011;25453;48.162;14.510;2022-10-16T06:52:19;0.98;;;0.60;;
39776;SDS011;25453;48.162;14.510;2022-10-16T06:54:54;2.20;;;0.85;;
39776;SDS011;25453;48.162;14.510;2022-10-16T06:57:21;1.17;;;0.77;;
39776;SDS011;25453;48.162;14.510;2022-10-16T06:59:52;1.48;;;0.85;;
39776;SDS011;25453;48.162;14.510;2022-10-16T07:02:26;1.27;;;0.70;;
39776;SDS011;25453;48.162;14.510;2022-10-16T07:05:00;1.05;;;0.73;;
39776;SDS011;25453;48.162;14.510;2022-10-16T07:07:28;0.73;;;0.60;;
39776;SDS011;25453;48.162;14.510;2022-10-16T07:10:01;1.55;;;0.70;;
39776;SDS011;25453;48.162;14.510;2022-10-16T07:12:29;1.27;;;0.70;;
39776;SDS011;25453;48.162;14.510;2022-10-16T07:15:02;0.90;;;0.60;;
39776;SDS011;25453;48.162;14.510;2022-10-16T07:17:36;1.30;;;0.68;;
39776;SDS011;25453;48.162;14.510;2022-10-16T07:20:10;1.00;;;0.77;;
39776;SDS011;25453;48.162;14.510;2022-10-16T07:22:38;0.68;;;0.63;;
39776;SDS011;25453;48.162;14.510;2022-10-16T07:25:11;1.65;;;0.60;;
39776;SDS011;25453;48.162;14.510;2022-10-16T07:27:45;1.27;;;0.60;;
39776;SDS011;25453;48.162;14.510;2022-10-16T07:30:13;0.70;;;0.50;;
39776;SDS011;25453;48.162;14.510;2022-10-16T07:32:54;1.17;;;0.50;;
39776;SDS011;25453;48.162;14.510;2022-10-16T07:35:22;1.02;;;0.80;;
39776;SDS011;25453;48.162;14.510;2022-10-16T07:37:56;1.00;;;0.47;;
39776;SDS011;25453;48.162;14.510;2022-10-16T07:40:24;0.75;;;0.32;;
39776;SDS011;25453;48.162;14.510;2022-10-16T07:42:59;1.15;;;0.60;;
39776;SDS011;25453;48.162;14.510;2022-10-16T07:45:28;0.73;;;0.43;;
39776;SDS011;25453;48.162;14.510;2022-10-16T07:48:02;0.50;;;0.40;;
39776;SDS011;25453;48.162;14.510;2022-10-16T07:50:36;0.60;;;0.40;;
39776;SDS011;25453;48.162;14.510;2022-10-16T07:53:10;1.05;;;0.60;;
39776;SDS011;25453;48.162;14.510;2022-10-16T07:55:38;1.02;;;0.50;;
39776;SDS011;25453;48.162;14.510;2022-10-16T07:58:13;0.83;;;0.50;;
39776;SDS011;25453;48.162;14.510;2022-10-16T08:00:47;0.68;;;0.30;;
39776;SDS011;25453;48.162;14.510;2022-10-16T08:03:14;1.33;;;0.55;;
39776;SDS011;25453;48.162;14.510;2022-10-16T08:05:48;0.40;;;0.40;;
39776;SDS011;25453;48.162;14.510;2022-10-16T08:08:16;0.32;;;0.32;;
39776;SDS011;25453;48.162;14.510;2022-10-16T08:10:51;0.30;;;0.30;;
39776;SDS011;25453;48.162;14.510;2022-10-16T08:13:19;0.70;;;0.40;;
39776;SDS011;25453;48.162;14.510;2022-10-16T08:15:54;0.70;;;0.50;;
39776;SDS011;25453;48.162;14.510;2022-10-16T08:18:22;1.55;;;0.60;;
39776;SDS011;25453;48.162;14.510;2022-10-16T08:20:58;0.75;;;0.40;;
39776;SDS011;25453;48.162;14.510;2022-10-16T08:26:11;0.82;;;0.50;;
39776;SDS011;25453;48.162;14.510;2022-10-16T08:28:45;0.88;;;0.52;;
39776;SDS011;25453;48.162;14.510;2022-10-16T08:31:28;1.70;;;0.50;;
39776;SDS011;25453;48.162;14.510;2022-10-16T08:34:10;0.73;;;0.60;;
39776;SDS011;25453;48.162;14.510;2022-10-16T08:36:38;0.68;;;0.50;;
39776;SDS011;25453;48.162;14.510;2022-10-16T08:39:11;0.70;;;0.45;;
39776;SDS011;25453;48.162;14.510;2022-10-16T08:50:10;1.13;;;0.70;;
39776;SDS011;25453;48.162;14.510;2022-10-16T08:52:41;2.38;;;0.93;;
39776;SDS011;25453;48.162;14.510;2022-10-16T08:55:28;1.10;;;0.65;;
39776;SDS011;25453;48.162;14.510;2022-10-16T08:58:01;1.02;;;0.55;;
39776;SDS011;25453;48.162;14.510;2022-10-16T09:00:37;1.65;;;0.90;;
39776;SDS011;25453;48.162;14.510;2022-10-16T09:20:26;1.20;;;0.60;;
39776;SDS011;25453;48.162;14.510;2022-10-16T09:25:39;1.15;;;0.40;;
39776;SDS011;25453;48.162;14.510;2022-10-16T09:28:30;1.08;;;0.50;;
39776;SDS011;25453;48.162;14.510;2022-10-16T09:31:18;1.05;;;0.60;;
39776;SDS011;25453;48.162;14.510;2022-10-16T09:34:02;0.60;;;0.30;;
39776;SDS011;25453;48.162;14.510;2022-10-16T09:36:38;0.45;;;0.40;;
39776;SDS011;25453;48.162;14.510;2022-10-16T09:39:18;0.52;;;0.38;;
39776;SDS011;25453;48.162;14.510;2022-10-16T09:41:46;0.93;;;0.50;;
39776;SDS011;25453;48.162;14.510;2022-10-16T09:44:22;0.32;;;0.30;;
39776;SDS011;25453;48.162;14.510;2022-10-16T09:47:41;0.30;;;0.28;;
39776;SDS011;25453;48.162;14.510;2022-10-16T09:50:20;0.20;;;0.20;;
39776;SDS011;25453;48.162;14.510;2022-10-16T09:53:03;0.70;;;0.30;;
39776;SDS011;25453;48.162;14.510;2022-10-16T09:55:49;0.77;;;0.57;;
39776;SDS011;25453;48.162;14.510;2022-10-16T09:58:23;0.45;;;0.30;;
39776;SDS011;25453;48.162;14.510;2022-10-16T10:00:52;0.60;;;0.35;;
39776;SDS011;25453;48.162;14.510;2022-10-16T10:03:35;1.70;;;0.40;;
39776;SDS011;25453;48.162;14.510;2022-10-16T10:09:03;0.45;;;0.30;;
39776;SDS011;25453;48.162;14.510;2022-10-16T10:14:37;0.50;;;0.30;;
39776;SDS011;25453;48.162;14.510;2022-10-16T10:17:14;0.20;;;0.20;;
39776;SDS011;25453;48.162;14.510;2022-10-16T10:20:16;0.47;;;0.35;;
39776;SDS011;25453;48.162;14.510;2022-10-16T10:22:56;0.32;;;0.30;;
39776;SDS011;25453;48.162;14.510;2022-10-16T10:34:15;0.98;;;0.50;;
39776;SDS011;25453;48.162;14.510;2022-10-16T10:37:47;1.10;;;0.32;;
39776;SDS011;25453;48.162;14.510;2022-10-16T10:42:54;0.77;;;0.40;;
39776;SDS011;25453;48.162;14.510;2022-10-16T10:49:03;0.95;;;0.40;;
39776;SDS011;25453;48.162;14.510;2022-10-16T10:51:28;0.60;;;0.40;;
39776;SDS011;25453;48.162;14.510;2022-10-16T10:54:24;1.13;;;0.50;;
39776;SDS011;25453;48.162;14.510;2022-10-16T11:06:00;1.05;;;0.40;;
39776;SDS011;25453;48.162;14.510;2022-10-16T11:11:53;0.60;;;0.40;;
39776;SDS011;25453;48.162;14.510;2022-10-16T11:14:29;1.52;;;0.50;;
39776;SDS011;25453;48.162;14.510;2022-10-16T11:17:38;1.10;;;0.50;;
39776;SDS011;25453;48.162;14.510;2022-10-16T11:20:23;0.50;;;0.30;;
39776;SDS011;25453;48.162;14.510;2022-10-16T11:25:48;0.40;;;0.20;;
39776;SDS011;25453;48.162;14.510;2022-10-16T11:28:24;0.77;;;0.40;;
39776;SDS011;25453;48.162;14.510;2022-10-16T11:37:12;0.77;;;0.40;;
39776;SDS011;25453;48.162;14.510;2022-10-16T11:39:49;0.68;;;0.50;;
39776;SDS011;25453;48.162;14.510;2022-10-16T11:42:27;0.38;;;0.38;;
39776;SDS011;25453;48.162;14.510;2022-10-16T11:46:03;0.80;;;0.50;;
39776;SDS011;25453;48.162;14.510;2022-10-16T11:50:54;0.70;;;0.60;;
39776;SDS011;25453;48.162;14.510;2022-10-16T11:53:34;1.05;;;0.55;;
39776;SDS011;25453;48.162;14.510;2022-10-16T11:56:17;1.00;;;0.60;;
39776;SDS011;25453;48.162;14.510;2022-10-16T11:59:04;1.25;;;0.73;;
39776;SDS011;25453;48.162;14.510;2022-10-16T12:01:49;1.40;;;0.77;;
39776;SDS011;25453;48.162;14.510;2022-10-16T12:07:19;0.82;;;0.60;;
39776;SDS011;25453;48.162;14.510;2022-10-16T12:09:57;1.30;;;0.57;;
39776;SDS011;25453;48.162;14.510;2022-10-16T12:12:42;1.10;;;0.60;;
39776;SDS011;25453;48.162;14.510;2022-10-16T12:15:26;0.85;;;0.47;;
39776;SDS011;25453;48.162;14.510;2022-10-16T12:18:24;1.20;;;0.60;;
39776;SDS011;25453;48.162;14.510;2022-10-16T12:20:59;1.03;;;0.70;;
39776;SDS011;25453;48.162;14.510;2022-10-16T12:23:46;0.98;;;0.50;;
39776;SDS011;25453;48.162;14.510;2022-10-16T12:26:25;1.17;;;0.63;;
39776;SDS011;25453;48.162;14.510;2022-10-16T12:29:17;1.00;;;0.50;;
39776;SDS011;25453;48.162;14.510;2022-10-16T12:32:27;0.63;;;0.55;;
39776;SDS011;25453;48.162;14.510;2022-10-16T12:35:23;0.75;;;0.47;;
39776;SDS011;25453;48.162;14.510;2022-10-16T12:38:07;0.93;;;0.50;;
39776;SDS011;25453;48.162;14.510;2022-10-16T12:40:55;1.23;;;0.30;;
39776;SDS011;25453;48.162;14.510;2022-10-16T12:43:43;1.15;;;0.60;;
39776;SDS011;25453;48.162;14.510;2022-10-16T12:46:23;0.90;;;0.47;;
39776;SDS011;25453;48.162;14.510;2022-10-16T12:51:49;0.95;;;0.50;;
39776;SDS011;25453;48.162;14.510;2022-10-16T12:54:25;0.77;;;0.45;;
39776;SDS011;25453;48.162;14.510;2022-10-16T13:03:39;0.68;;;0.50;;
39776;SDS011;25453;48.162;14.510;2022-10-16T13:06:46;0.98;;;0.63;;
39776;SDS011;25453;48.162;14.510;2022-10-16T13:09:27;1.00;;;0.60;;
39776;SDS011;25453;48.162;14.510;2022-10-16T13:15:25;0.95;;;0.63;;
39776;SDS011;25453;48.162;14.510;2022-10-16T13:18:19;1.02;;;0.60;;
39776;SDS011;25453;48.162;14.510;2022-10-16T13:24:17;1.25;;;0.60;;
39776;SDS011;25453;48.162;14.510;2022-10-16T13:27:18;0.80;;;0.63;;
39776;SDS011;25453;48.162;14.510;2022-10-16T13:30:15;1.20;;;0.43;;
39776;SDS011;25453;48.162;14.510;2022-10-16T13:33:03;1.05;;;0.50;;
39776;SDS011;25453;48.162;14.510;2022-10-16T13:35:54;1.40;;;0.73;;
39776;SDS011;25453;48.162;14.510;2022-10-16T13:38:33;0.85;;;0.50;;
39776;SDS011;25453;48.162;14.510;2022-10-16T13:41:06;1.25;;;0.70;;
39776;SDS011;25453;48.162;14.510;2022-10-16T13:43:49;2.70;;;0.60;;
39776;SDS011;25453;48.162;14.510;2022-10-16T13:46:20;1.40;;;0.40;;
39776;SDS011;25453;48.162;14.510;2022-10-16T13:48:59;0.50;;;0.30;;
39776;SDS011;25453;48.162;14.510;2022-10-16T13:51:30;1.92;;;0.90;;
39776;SDS011;25453;48.162;14.510;2022-10-16T13:54:07;1.10;;;0.47;;
39776;SDS011;25453;48.162;14.510;2022-10-16T13:56:38;0.70;;;0.60;;
39776;SDS011;25453;48.162;14.510;2022-10-16T13:59:34;0.68;;;0.30;;
39776;SDS011;25453;48.162;14.510;2022-10-16T14:04:51;0.40;;;0.28;;
39776;SDS011;25453;48.162;14.510;2022-10-16T14:07:23;2.75;;;0.60;;
39776;SDS011;25453;48.162;14.510;2022-10-16T14:10:00;0.50;;;0.30;;
39776;SDS011;25453;48.162;14.510;2022-10-16T14:12:56;1.08;;;0.60;;
39776;SDS011;25453;48.162;14.510;2022-10-16T14:15:35;0.73;;;0.40;;
39776;SDS011;25453;48.162;14.510;2022-10-16T14:18:14;1.15;;;0.50;;
39776;SDS011;25453;48.162;14.510;2022-10-16T14:21:04;0.63;;;0.45;;
39776;SDS011;25453;48.162;14.510;2022-10-16T14:23:40;0.57;;;0.40;;
39776;SDS011;25453;48.162;14.510;2022-10-16T14:28:43;0.75;;;0.47;;
39776;SDS011;25453;48.162;14.510;2022-10-16T14:31:28;0.80;;;0.50;;
39776;SDS011;25453;48.162;14.510;2022-10-16T14:34:30;0.38;;;0.35;;
39776;SDS011;25453;48.162;14.510;2022-10-16T14:37:01;2.40;;;0.60;;
39776;SDS011;25453;48.162;14.510;2022-10-16T14:39:53;0.90;;;0.63;;
39776;SDS011;25453;48.162;14.510;2022-10-16T14:42:29;0.73;;;0.40;;
39776;SDS011;25453;48.162;14.510;2022-10-16T14:45:07;0.30;;;0.30;;
39776;SDS011;25453;48.162;14.510;2022-10-16T14:47:50;1.23;;;0.60;;
39776;SDS011;25453;48.162;14.510;2022-10-16T14:50:26;2.55;;;1.20;;
39776;SDS011;25453;48.162;14.510;2022-10-16T14:52:54;1.55;;;0.45;;
39776;SDS011;25453;48.162;14.510;2022-10-16T14:55:28;0.98;;;0.60;;
39776;SDS011;25453;48.162;14.510;2022-10-16T14:57:56;1.38;;;0.50;;
39776;SDS011;25453;48.162;14.510;2022-10-16T15:00:30;0.97;;;0.60;;
39776;SDS011;25453;48.162;14.510;2022-10-16T15:03:04;1.48;;;0.55;;
39776;SDS011;25453;48.162;14.510;2022-10-16T15:05:32;1.88;;;0.75;;
39776;SDS011;25453;48.162;14.510;2022-10-16T15:08:06;1.60;;;0.82;;
39776;SDS011;25453;48.162;14.510;2022-10-16T15:10:36;0.88;;;0.60;;
39776;SDS011;25453;48.162;14.510;2022-10-16T15:13:15;1.35;;;0.77;;
39776;SDS011;25453;48.162;14.510;2022-10-16T15:15:43;2.13;;;0.65;;
39776;SDS011;25453;48.162;14.510;2022-10-16T15:18:18;0.75;;;0.50;;
39776;SDS011;25453;48.162;14.510;2022-10-16T15:20:53;1.17;;;0.60;;
39776;SDS011;25453;48.162;14.510;2022-10-16T15:23:21;1.15;;;0.70;;
39776;SDS011;25453;48.162;14.510;2022-10-16T15:28:29;1.33;;;0.70;;
39776;SDS011;25453;48.162;14.510;2022-10-16T15:30:57;2.85;;;0.75;;
39776;SDS011;25453;48.162;14.510;2022-10-16T15:33:37;1.45;;;0.60;;
39776;SDS011;25453;48.162;14.510;2022-10-16T15:36:06;0.95;;;0.50;;
39776;SDS011;25453;48.162;14.510;2022-10-16T15:38:42;0.98;;;0.57;;
39776;SDS011;25453;48.162;14.510;2022-10-16T15:41:19;0.80;;;0.52;;
39776;SDS011;25453;48.162;14.510;2022-10-16T15:43:50;1.00;;;0.57;;
39776;SDS011;25453;48.162;14.510;2022-10-16T15:46:24;1.02;;;0.40;;
39776;SDS011;25453;48.162;14.510;2022-10-16T15:48:55;0.90;;;0.50;;
39776;SDS011;25453;48.162;14.510;2022-10-16T15:51:31;1.25;;;0.55;;
39776;SDS011;25453;48.162;14.510;2022-10-16T15:54:07;0.45;;;0.40;;
39776;SDS011;25453;48.162;14.510;2022-10-16T15:56:41;0.88;;;0.40;;
39776;SDS011;25453;48.162;14.510;2022-10-16T15:59:16;0.77;;;0.40;;
39776;SDS011;25453;48.162;14.510;2022-10-16T16:01:44;0.93;;;0.45;;
39776;SDS011;25453;48.162;14.510;2022-10-16T16:04:17;0.70;;;0.50;;
39776;SDS011;25453;48.162;14.510;2022-10-16T16:07:12;1.38;;;0.65;;
39776;SDS011;25453;48.162;14.510;2022-10-16T16:09:46;0.90;;;0.65;;
39776;SDS011;25453;48.162;14.510;2022-10-16T16:12:20;2.70;;;0.65;;
39776;SDS011;25453;48.162;14.510;2022-10-16T16:14:47;1.40;;;0.80;;
39776;SDS011;25453;48.162;14.510;2022-10-16T16:17:21;1.25;;;0.85;;
39776;SDS011;25453;48.162;14.510;2022-10-16T16:22:24;1.02;;;0.60;;
39776;SDS011;25453;48.162;14.510;2022-10-16T16:24:57;2.33;;;1.00;;
39776;SDS011;25453;48.162;14.510;2022-10-16T16:27:32;1.40;;;0.80;;
39776;SDS011;25453;48.162;14.510;2022-10-16T16:30:01;2.15;;;0.90;;
39776;SDS011;25453;48.162;14.510;2022-10-16T16:32:44;2.25;;;1.13;;
39776;SDS011;25453;48.162;14.510;2022-10-16T16:35:18;1.70;;;1.08;;
39776;SDS011;25453;48.162;14.510;2022-10-16T16:37:51;1.25;;;0.80;;
39776;SDS011;25453;48.162;14.510;2022-10-16T16:40:19;2.50;;;1.10;;
39776;SDS011;25453;48.162;14.510;2022-10-16T16:42:53;1.33;;;0.87;;
39776;SDS011;25453;48.162;14.510;2022-10-16T16:45:20;1.50;;;1.10;;
39776;SDS011;25453;48.162;14.510;2022-10-16T16:47:47;3.30;;;1.50;;
39776;SDS011;25453;48.162;14.510;2022-10-16T16:50:21;3.47;;;1.90;;
39776;SDS011;25453;48.162;14.510;2022-10-16T16:52:49;3.40;;;1.83;;
39776;SDS011;25453;48.162;14.510;2022-10-16T16:55:16;3.92;;;2.15;;
39776;SDS011;25453;48.162;14.510;2022-10-16T16:57:50;4.60;;;2.88;;
39776;SDS011;25453;48.162;14.510;2022-10-16T17:00:24;5.22;;;2.80;;
39776;SDS011;25453;48.162;14.510;2022-10-16T17:02:51;6.38;;;3.22;;
39776;SDS011;25453;48.162;14.510;2022-10-16T17:05:24;7.03;;;3.30;;
39776;SDS011;25453;48.162;14.510;2022-10-16T17:07:52;7.32;;;4.28;;
39776;SDS011;25453;48.162;14.510;2022-10-16T17:12:54;8.70;;;4.75;;
39776;SDS011;25453;48.162;14.510;2022-10-16T17:15:29;7.78;;;4.40;;
39776;SDS011;25453;48.162;14.510;2022-10-16T17:18:03;8.45;;;5.28;;
39776;SDS011;25453;48.162;14.510;2022-10-16T17:20:36;9.02;;;4.97;;
39776;SDS011;25453;48.162;14.510;2022-10-16T17:23:04;9.68;;;5.40;;
39776;SDS011;25453;48.162;14.510;2022-10-16T17:25:38;15.85;;;6.32;;
39776;SDS011;25453;48.162;14.510;2022-10-16T17:28:13;10.43;;;5.78;;
39776;SDS011;25453;48.162;14.510;2022-10-16T17:30:40;11.68;;;6.25;;
39776;SDS011;25453;48.162;14.510;2022-10-16T17:33:21;11.20;;;6.47;;
39776;SDS011;25453;48.162;14.510;2022-10-16T17:35:48;13.90;;;6.97;;